createdAt,value
2023-06-12T00:00:48.666Z,27.80
2023-06-12T00:01:48.683Z,27.79
2023-06-12T00:02:48.886Z,27.80
2023-06-12T00:03:49.137Z,27.80
2023-06-12T00:04:48.992Z,27.78
2023-06-12T00:05:48.790Z,27.78
2023-06-12T00:06:48.843Z,27.80
2023-06-12T00:07:48.850Z,27.79
2023-06-12T00:08:48.892Z,27.78
2023-06-12T00:09:48.920Z,27.78
2023-06-12T00:10:48.967Z,27.79
2023-06-12T00:11:48.994Z,27.76
2023-06-12T00:12:49.043Z,27.79
2023-06-12T00:13:49.183Z,27.78
2023-06-12T00:14:49.099Z,27.79
2023-06-12T00:15:49.143Z,27.76
2023-06-12T00:16:49.319Z,27.78
2023-06-12T00:17:49.330Z,27.76
2023-06-12T00:18:49.245Z,27.78
2023-06-12T00:19:49.281Z,27.79
2023-06-12T00:20:49.364Z,27.76
2023-06-12T00:21:49.392Z,27.78
2023-06-12T00:22:49.400Z,27.76
2023-06-12T00:23:49.463Z,27.76
2023-06-12T00:24:49.481Z,27.76
2023-06-12T00:25:49.509Z,27.76
2023-06-12T00:26:49.552Z,27.78
2023-06-12T00:27:49.612Z,27.75
2023-06-12T00:28:49.653Z,27.75
2023-06-12T00:29:49.680Z,27.76
2023-06-12T00:30:49.720Z,27.76
2023-06-12T00:31:49.858Z,27.76
2023-06-12T00:32:49.855Z,27.75
2023-06-12T00:33:49.830Z,27.75
2023-06-12T00:34:49.879Z,27.75
2023-06-12T00:35:49.901Z,27.75
2023-06-12T00:36:49.958Z,27.73
2023-06-12T00:37:49.994Z,27.75
2023-06-12T00:38:50.030Z,27.73
2023-06-12T00:39:50.070Z,27.73
2023-06-12T00:40:50.128Z,27.73
2023-06-12T00:41:50.153Z,27.73
2023-06-12T00:42:50.195Z,27.73
2023-06-12T00:43:50.232Z,27.76
2023-06-12T00:44:50.274Z,27.73
2023-06-12T00:45:50.420Z,27.72
2023-06-12T00:46:50.360Z,27.73
2023-06-12T00:47:50.437Z,27.72
2023-06-12T00:48:50.435Z,27.75
2023-06-12T00:49:50.471Z,27.73
2023-06-12T00:50:50.516Z,27.72
2023-06-12T00:51:50.565Z,27.72
2023-06-12T00:52:50.592Z,27.73
2023-06-12T00:53:50.627Z,27.73
2023-06-12T00:54:50.664Z,27.72
2023-06-12T00:55:50.701Z,27.72
2023-06-12T00:56:50.758Z,27.70
2023-06-12T00:57:50.791Z,27.73
2023-06-12T00:58:50.820Z,27.73
2023-06-12T00:59:50.850Z,27.72
2023-06-12T01:00:50.951Z,27.75
2023-06-12T01:01:50.949Z,27.75
2023-06-12T01:02:51.024Z,27.75
2023-06-12T01:03:50.996Z,27.72
2023-06-12T01:04:51.038Z,27.73
2023-06-12T01:05:51.072Z,27.73
2023-06-12T01:06:51.115Z,27.72
2023-06-12T01:07:51.153Z,27.73
2023-06-12T01:08:51.198Z,27.73
2023-06-12T01:09:51.233Z,27.75
2023-06-12T01:10:51.276Z,27.73
2023-06-12T01:11:51.322Z,27.70
2023-06-12T01:12:51.371Z,27.73
2023-06-12T01:13:51.428Z,27.72
2023-06-12T01:14:51.460Z,27.72
2023-06-12T01:15:51.489Z,27.73
2023-06-12T01:16:51.574Z,27.72
2023-06-12T01:17:51.601Z,27.73
2023-06-12T01:18:51.617Z,27.72
2023-06-12T01:19:51.670Z,27.72
2023-06-12T01:20:51.704Z,27.72
2023-06-12T01:21:51.754Z,27.72
2023-06-12T01:22:51.794Z,27.72
2023-06-12T01:23:51.967Z,27.72
2023-06-12T01:24:51.876Z,27.72
2023-06-12T01:25:51.912Z,27.72
2023-06-12T01:26:51.952Z,27.73
2023-06-12T01:27:51.994Z,27.70
2023-06-12T01:28:52.038Z,27.70
2023-06-12T01:29:52.079Z,27.73
2023-06-12T01:30:52.116Z,27.69
2023-06-12T01:31:52.288Z,27.72
2023-06-12T01:32:52.272Z,27.70
2023-06-12T01:33:52.269Z,27.70
2023-06-12T01:34:52.516Z,27.72
2023-06-12T01:35:52.316Z,27.72
2023-06-12T01:36:52.374Z,27.69
2023-06-12T01:37:52.401Z,27.72
2023-06-12T01:38:52.432Z,27.72
2023-06-12T01:39:52.480Z,27.69
2023-06-12T01:40:52.514Z,27.69
2023-06-12T01:41:52.558Z,27.69
2023-06-12T01:42:52.625Z,27.68
2023-06-12T01:43:52.631Z,27.68
2023-06-12T01:44:52.673Z,27.70
2023-06-12T01:45:52.719Z,27.69
2023-06-12T01:46:52.780Z,27.68
2023-06-12T01:47:52.911Z,27.70
2023-06-12T01:48:52.861Z,27.69
2023-06-12T01:49:52.918Z,27.70
2023-06-12T01:50:52.935Z,27.69
2023-06-12T01:51:52.980Z,27.72
2023-06-12T01:52:53.021Z,27.68
2023-06-12T01:53:53.058Z,27.70
2023-06-12T01:54:53.106Z,27.70
2023-06-12T01:55:53.160Z,27.68
2023-06-12T01:56:53.207Z,27.66
2023-06-12T01:57:53.288Z,27.68
2023-06-12T01:58:53.287Z,27.68
2023-06-12T01:59:53.329Z,27.66
2023-06-12T02:00:53.370Z,27.69
2023-06-12T02:01:53.473Z,27.69
2023-06-12T02:02:53.465Z,27.70
2023-06-12T02:03:53.562Z,27.70
2023-06-12T02:04:53.548Z,27.70
2023-06-12T02:05:53.612Z,27.70
2023-06-12T02:06:53.626Z,27.69
2023-06-12T02:07:53.674Z,27.68
2023-06-12T02:08:53.699Z,27.69
2023-06-12T02:09:53.739Z,27.69
2023-06-12T02:10:53.781Z,27.72
2023-06-12T02:11:53.823Z,27.68
2023-06-12T02:12:53.863Z,27.66
2023-06-12T02:13:53.904Z,27.68
2023-06-12T02:14:53.947Z,27.69
2023-06-12T02:15:54.031Z,27.66
2023-06-12T02:16:54.028Z,27.69
2023-06-12T02:17:54.138Z,27.69
2023-06-12T02:18:54.133Z,27.68
2023-06-12T02:19:54.163Z,27.65
2023-06-12T02:20:54.227Z,27.66
2023-06-12T02:21:54.285Z,27.69
2023-06-12T02:22:54.319Z,27.66
2023-06-12T02:23:54.432Z,27.69
2023-06-12T02:24:54.390Z,27.69
2023-06-12T02:25:54.441Z,27.68
2023-06-12T02:26:54.492Z,27.68
2023-06-12T02:27:54.540Z,27.66
2023-06-12T02:28:54.580Z,27.66
2023-06-12T02:29:54.622Z,27.69
2023-06-12T02:30:54.679Z,27.68
2023-06-12T02:31:54.770Z,27.68
2023-06-12T02:32:54.799Z,27.70
2023-06-12T02:33:54.802Z,27.69
2023-06-12T02:34:54.850Z,27.66
2023-06-12T02:35:54.893Z,27.69
2023-06-12T02:36:54.934Z,27.69
2023-06-12T02:37:55.024Z,27.68
2023-06-12T02:38:55.029Z,27.68
2023-06-12T02:39:55.078Z,27.65
2023-06-12T02:40:55.127Z,27.66
2023-06-12T02:41:55.178Z,27.68
2023-06-12T02:42:55.244Z,27.68
2023-06-12T02:43:55.274Z,27.66
2023-06-12T02:44:55.327Z,27.68
2023-06-12T02:45:55.392Z,27.66
2023-06-12T02:46:55.453Z,27.68
2023-06-12T02:47:55.500Z,27.68
2023-06-12T02:48:55.537Z,27.68
2023-06-12T02:49:55.610Z,27.68
2023-06-12T02:50:55.634Z,27.66
2023-06-12T02:51:55.690Z,27.66
2023-06-12T02:52:55.731Z,27.65
2023-06-12T02:53:55.860Z,27.68
2023-06-12T02:54:55.830Z,27.68
2023-06-12T02:55:55.878Z,27.68
2023-06-12T02:56:55.939Z,27.68
2023-06-12T02:57:55.987Z,27.66
2023-06-12T02:58:56.032Z,27.65
2023-06-12T02:59:56.078Z,27.68
2023-06-12T03:00:56.150Z,27.65
2023-06-12T03:01:56.180Z,27.65
2023-06-12T03:02:56.274Z,27.62
2023-06-12T03:03:56.385Z,27.66
2023-06-12T03:04:56.320Z,27.65
2023-06-12T03:05:56.368Z,27.65
2023-06-12T03:06:56.419Z,27.66
2023-06-12T03:07:56.476Z,27.65
2023-06-12T03:08:56.516Z,27.65
2023-06-12T03:09:56.591Z,27.66
2023-06-12T03:10:56.617Z,27.65
2023-06-12T03:11:56.666Z,27.65
2023-06-12T03:12:56.717Z,27.65
2023-06-12T03:13:56.768Z,27.66
2023-06-12T03:14:56.810Z,27.66
2023-06-12T03:15:56.876Z,27.66
2023-06-12T03:16:56.905Z,27.66
2023-06-12T03:17:56.993Z,27.63
2023-06-12T03:18:57.016Z,27.65
2023-06-12T03:19:57.051Z,27.65
2023-06-12T03:20:57.113Z,27.66
2023-06-12T03:21:57.145Z,27.66
2023-06-12T03:22:57.195Z,27.65
2023-06-12T03:23:57.268Z,27.63
2023-06-12T03:24:57.280Z,27.66
2023-06-12T03:25:57.351Z,27.65
2023-06-12T03:26:57.378Z,27.63
2023-06-12T03:27:57.454Z,27.66
2023-06-12T03:28:57.478Z,27.65
2023-06-12T03:29:57.529Z,27.65
2023-06-12T03:30:57.606Z,27.63
2023-06-12T03:31:57.624Z,27.65
2023-06-12T03:32:57.838Z,27.66
2023-06-12T03:33:57.721Z,27.65
2023-06-12T03:34:57.778Z,27.66
2023-06-12T03:35:57.823Z,27.65
2023-06-12T03:36:57.871Z,27.65
2023-06-12T03:37:57.921Z,27.65
2023-06-12T03:38:57.974Z,27.65
2023-06-12T03:39:58.023Z,27.65
2023-06-12T03:40:58.093Z,27.66
2023-06-12T03:41:58.146Z,27.65
2023-06-12T03:42:58.199Z,27.65
2023-06-12T03:43:58.234Z,27.63
2023-06-12T03:44:58.287Z,27.62
2023-06-12T03:45:58.333Z,27.62
2023-06-12T03:46:58.439Z,27.61
2023-06-12T03:47:58.487Z,27.62
2023-06-12T03:48:58.485Z,27.62
2023-06-12T03:49:58.523Z,27.62
2023-06-12T03:50:58.564Z,27.63
2023-06-12T03:51:58.608Z,27.62
2023-06-12T03:52:58.661Z,27.62
2023-06-12T03:53:58.725Z,27.63
2023-06-12T03:54:58.748Z,27.63
2023-06-12T03:55:58.797Z,27.65
2023-06-12T03:56:58.857Z,27.65
2023-06-12T03:57:58.917Z,27.63
2023-06-12T03:58:58.937Z,27.62
2023-06-12T03:59:58.985Z,27.65
2023-06-12T04:00:59.025Z,27.63
2023-06-12T04:01:59.102Z,27.63
2023-06-12T04:02:59.208Z,27.63
2023-06-12T04:03:59.220Z,27.63
2023-06-12T04:04:59.234Z,27.63
2023-06-12T04:05:59.287Z,27.65
2023-06-12T04:06:59.310Z,27.63
2023-06-12T04:07:59.367Z,27.63
2023-06-12T04:08:59.403Z,27.65
2023-06-12T04:09:59.453Z,27.63
2023-06-12T04:10:59.504Z,27.62
2023-06-12T04:11:59.561Z,27.63
2023-06-12T04:12:59.610Z,27.65
2023-06-12T04:13:59.688Z,27.63
2023-06-12T04:14:59.711Z,27.62
2023-06-12T04:15:59.787Z,27.63
2023-06-12T04:16:59.821Z,27.62
2023-06-12T04:17:59.917Z,27.62
2023-06-12T04:18:59.908Z,27.62
2023-06-12T04:19:59.953Z,27.63
2023-06-12T04:21:00.010Z,27.62
2023-06-12T04:22:00.068Z,27.65
2023-06-12T04:23:00.139Z,27.65
2023-06-12T04:24:00.236Z,27.65
2023-06-12T04:25:00.219Z,27.63
2023-06-12T04:26:00.253Z,27.63
2023-06-12T04:27:00.303Z,27.63
2023-06-12T04:28:00.354Z,27.63
2023-06-12T04:29:00.417Z,27.65
2023-06-12T04:30:00.489Z,27.63
2023-06-12T04:31:00.520Z,27.63
2023-06-12T04:32:00.781Z,27.63
2023-06-12T04:33:00.638Z,27.63
2023-06-12T04:34:00.653Z,27.63
2023-06-12T04:35:00.690Z,27.63
2023-06-12T04:36:00.734Z,27.63
2023-06-12T04:37:00.797Z,27.63
2023-06-12T04:38:00.840Z,27.63
2023-06-12T04:39:00.901Z,27.66
2023-06-12T04:40:00.937Z,27.62
2023-06-12T04:41:01.030Z,27.63
2023-06-12T04:42:01.037Z,27.65
2023-06-12T04:43:01.087Z,27.65
2023-06-12T04:44:01.142Z,27.65
2023-06-12T04:45:01.203Z,27.63
2023-06-12T04:46:01.272Z,27.63
2023-06-12T04:47:01.295Z,27.62
2023-06-12T04:48:01.417Z,27.61
2023-06-12T04:49:01.440Z,27.63
2023-06-12T04:50:01.456Z,27.65
2023-06-12T04:51:01.510Z,27.65
2023-06-12T04:52:01.554Z,27.65
2023-06-12T04:53:01.586Z,27.62
2023-06-12T04:54:04.739Z,27.63
2023-06-12T04:55:01.650Z,27.63
2023-06-12T04:56:01.650Z,27.63
2023-06-12T04:57:01.664Z,27.63
2023-06-12T04:58:01.683Z,27.62
2023-06-12T04:59:01.689Z,27.63
2023-06-12T05:00:01.695Z,27.65
2023-06-12T05:01:02.281Z,27.62
2023-06-12T05:02:01.841Z,27.63
2023-06-12T05:03:01.870Z,27.65
2023-06-12T05:04:01.950Z,27.63
2023-06-12T05:05:01.933Z,27.62
2023-06-12T05:06:01.979Z,27.63
2023-06-12T05:07:02.025Z,27.66
2023-06-12T05:08:02.102Z,27.63
2023-06-12T05:09:02.117Z,27.65
2023-06-12T05:10:02.165Z,27.63
2023-06-12T05:11:02.219Z,27.65
2023-06-12T05:12:02.282Z,27.63
2023-06-12T05:13:02.326Z,27.63
2023-06-12T05:14:02.371Z,27.63
2023-06-12T05:15:02.426Z,27.65
2023-06-12T05:16:02.542Z,27.65
2023-06-12T05:17:02.719Z,27.63
2023-06-12T05:18:02.651Z,27.63
2023-06-12T05:19:02.634Z,27.62
2023-06-12T05:20:02.760Z,27.61
2023-06-12T05:21:02.734Z,27.61
2023-06-12T05:22:03.255Z,27.59
2023-06-12T05:23:03.236Z,27.56
2023-06-12T05:24:02.987Z,27.55
2023-06-12T05:25:06.183Z,27.53
2023-06-12T05:26:02.998Z,27.51
2023-06-12T05:27:03.010Z,27.52
2023-06-12T05:28:03.250Z,27.51
2023-06-12T05:29:03.038Z,27.51
2023-06-12T05:30:03.057Z,27.48
2023-06-12T05:31:03.191Z,27.45
2023-06-12T05:32:03.087Z,27.48
2023-06-12T05:33:04.329Z,27.44
2023-06-12T05:34:03.144Z,27.45
2023-06-12T05:35:03.130Z,27.45
2023-06-12T05:36:03.161Z,27.44
2023-06-12T05:37:03.190Z,27.42
2023-06-12T05:38:03.186Z,27.42
2023-06-12T05:39:05.619Z,27.42
2023-06-12T05:40:03.268Z,27.42
2023-06-12T05:41:03.291Z,27.41
2023-06-12T05:42:03.335Z,27.42
2023-06-12T05:43:03.743Z,27.42
2023-06-12T05:44:03.331Z,27.41
2023-06-12T05:45:03.343Z,27.40
2023-06-12T05:46:03.370Z,27.41
2023-06-12T05:47:03.359Z,27.42
2023-06-12T05:48:03.792Z,27.41
2023-06-12T05:49:03.412Z,27.44
2023-06-12T05:50:07.028Z,27.44
2023-06-12T05:51:03.438Z,27.42
2023-06-12T05:52:03.456Z,27.44
2023-06-12T05:53:10.893Z,27.45
2023-06-12T05:54:03.701Z,27.46
2023-06-12T05:55:04.376Z,27.45
2023-06-12T05:56:05.288Z,27.46
2023-06-12T05:58:07.347Z,27.49
2023-06-12T05:59:03.591Z,27.51
2023-06-12T06:01:06.803Z,27.53
2023-06-12T06:02:11.042Z,27.53
2023-06-12T06:03:35.707Z,27.53
2023-06-12T06:04:07.211Z,27.53
2023-06-12T06:06:11.054Z,27.53
2023-06-12T06:08:19.301Z,27.55
2023-06-12T06:09:03.759Z,27.53
2023-06-12T06:11:11.194Z,27.58
2023-06-12T06:12:03.700Z,27.56
2023-06-12T06:14:19.480Z,27.58
2023-06-12T06:15:12.075Z,27.56
2023-06-12T06:16:19.686Z,27.56
2023-06-12T06:17:04.055Z,27.52
2023-06-12T06:18:04.046Z,27.58
2023-06-12T06:19:04.321Z,27.53
2023-06-12T06:20:03.978Z,27.56
2023-06-12T06:21:03.958Z,27.53
2023-06-12T06:22:03.856Z,27.56
2023-06-12T06:23:11.880Z,27.55
2023-06-12T06:24:07.276Z,27.55
2023-06-12T06:25:04.377Z,27.55
2023-06-12T06:26:04.178Z,27.55
2023-06-12T06:27:03.922Z,27.58
2023-06-12T06:28:04.376Z,27.53
2023-06-12T06:29:12.726Z,27.55
2023-06-12T06:30:03.987Z,27.58
2023-06-12T06:31:07.533Z,27.56
2023-06-12T06:32:04.370Z,27.55
2023-06-12T06:33:04.345Z,27.55
2023-06-12T06:34:03.965Z,27.61
2023-06-12T06:35:11.971Z,27.58
2023-06-12T06:36:04.298Z,27.59
2023-06-12T06:37:04.024Z,27.58
2023-06-12T06:38:04.288Z,27.59
2023-06-12T06:39:19.703Z,27.61
2023-06-12T06:40:04.294Z,27.63
2023-06-12T06:41:04.118Z,27.62
2023-06-12T06:42:04.137Z,27.61
2023-06-12T06:43:04.210Z,27.62
2023-06-12T06:44:04.349Z,27.63
2023-06-12T06:45:04.207Z,27.61
2023-06-12T06:46:06.549Z,27.63
2023-06-12T06:47:11.569Z,27.63
2023-06-12T06:48:04.549Z,27.62
2023-06-12T06:49:04.320Z,27.63
2023-06-12T06:50:04.399Z,27.66
2023-06-12T06:51:04.286Z,27.63
2023-06-12T06:52:04.315Z,27.63
2023-06-12T06:53:04.278Z,27.65
2023-06-12T06:54:07.449Z,27.63
2023-06-12T06:55:04.200Z,27.65
2023-06-12T06:56:11.741Z,27.63
2023-06-12T06:57:04.224Z,27.63
2023-06-12T06:58:04.250Z,27.63
2023-06-12T06:59:04.267Z,27.65
2023-06-12T07:00:04.250Z,27.66
2023-06-12T07:01:04.367Z,27.68
2023-06-12T07:02:04.265Z,27.68
2023-06-12T07:03:04.878Z,27.66
2023-06-12T07:04:04.365Z,27.69
2023-06-12T07:05:04.311Z,27.69
2023-06-12T07:06:04.314Z,27.68
2023-06-12T07:07:04.373Z,27.70
2023-06-12T07:08:04.776Z,27.69
2023-06-12T07:09:04.338Z,27.70
2023-06-12T07:10:04.371Z,27.66
2023-06-12T07:11:04.811Z,27.70
2023-06-12T07:12:04.379Z,27.70
2023-06-12T07:13:04.782Z,27.70
2023-06-12T07:14:04.433Z,27.73
2023-06-12T07:15:04.432Z,27.70
2023-06-12T07:16:04.491Z,27.72
2023-06-12T07:17:04.465Z,27.72
2023-06-12T07:18:04.913Z,27.72
2023-06-12T07:19:04.803Z,27.72
2023-06-12T07:20:04.512Z,27.73
2023-06-12T07:21:04.626Z,27.70
2023-06-12T07:22:04.557Z,27.72
2023-06-12T07:23:04.556Z,27.70
2023-06-12T07:24:05.519Z,27.72
2023-06-12T07:25:04.581Z,27.72
2023-06-12T07:26:18.638Z,27.73
2023-06-12T07:27:04.657Z,27.72
2023-06-12T07:28:04.789Z,27.70
2023-06-12T07:29:04.802Z,27.72
2023-06-12T07:30:04.791Z,27.75
2023-06-12T07:31:05.776Z,27.76
2023-06-12T07:32:04.789Z,27.73
2023-06-12T07:33:04.846Z,27.73
2023-06-12T07:34:07.702Z,27.76
2023-06-12T07:35:05.052Z,27.76
2023-06-12T07:36:05.784Z,27.83
2023-06-12T07:37:04.870Z,27.85
2023-06-12T07:38:12.852Z,27.89
2023-06-12T07:39:08.154Z,27.93
2023-06-12T07:40:12.232Z,27.97
2023-06-12T07:41:05.320Z,27.99
2023-06-12T07:42:04.925Z,28.04
2023-06-12T07:43:06.300Z,28.06
2023-06-12T07:44:04.919Z,28.10
2023-06-12T07:45:04.889Z,28.16
2023-06-12T07:46:05.315Z,28.17
2023-06-12T07:47:04.951Z,28.20
2023-06-12T07:48:05.408Z,28.25
2023-06-12T07:49:05.911Z,28.28
2023-06-12T07:50:04.936Z,28.31
2023-06-12T07:51:12.338Z,28.31
2023-06-12T07:52:04.981Z,28.38
2023-06-12T07:53:36.396Z,28.38
2023-06-12T07:56:12.326Z,28.45
2023-06-12T07:57:04.942Z,28.48
2023-06-12T07:59:04.964Z,28.52
2023-06-12T08:00:04.965Z,28.54
2023-06-12T08:01:04.948Z,28.56
2023-06-12T08:02:05.072Z,28.59
2023-06-12T08:03:20.732Z,28.59
2023-06-12T08:04:05.163Z,28.62
2023-06-12T08:05:04.976Z,28.63
2023-06-12T08:06:05.393Z,28.62
2023-06-12T08:07:05.078Z,28.63
2023-06-12T08:08:05.321Z,28.66
2023-06-12T08:09:04.973Z,28.68
2023-06-12T08:10:04.987Z,28.68
2023-06-12T08:11:05.311Z,28.68
2023-06-12T08:12:05.050Z,28.66
2023-06-12T08:13:05.755Z,28.70
2023-06-12T08:14:05.025Z,28.70
2023-06-12T08:15:05.015Z,28.72
2023-06-12T08:16:04.985Z,28.72
2023-06-12T08:17:05.330Z,28.75
2023-06-12T08:18:05.073Z,28.78
2023-06-12T08:19:05.008Z,28.79
2023-06-12T08:20:04.986Z,28.80
2023-06-12T08:21:04.989Z,28.80
2023-06-12T08:22:06.330Z,28.83
2023-06-12T08:23:05.322Z,28.82
2023-06-12T08:24:05.059Z,28.88
2023-06-12T08:25:05.125Z,28.88
2023-06-12T08:26:05.165Z,28.89
2023-06-12T08:27:05.234Z,28.90
2023-06-12T08:28:05.409Z,28.90
2023-06-12T08:29:05.385Z,28.92
2023-06-12T08:30:05.460Z,28.95
2023-06-12T08:31:05.738Z,28.97
2023-06-12T08:32:05.597Z,28.96
2023-06-12T08:33:05.736Z,28.99
2023-06-12T08:34:05.834Z,28.99
2023-06-12T08:35:05.817Z,28.99
2023-06-12T08:36:06.327Z,28.99
2023-06-12T08:37:05.959Z,29.02
2023-06-12T08:38:06.026Z,29.02
2023-06-12T08:39:06.100Z,29.03
2023-06-12T08:40:06.173Z,29.05
2023-06-12T08:41:06.376Z,29.06
2023-06-12T08:42:09.499Z,29.07
2023-06-12T08:43:09.511Z,29.10
2023-06-12T08:44:06.302Z,29.10
2023-06-12T08:45:20.913Z,29.10
2023-06-12T08:46:06.358Z,29.09
2023-06-12T08:47:07.313Z,29.09
2023-06-12T08:48:13.680Z,29.13
2023-06-12T08:49:09.499Z,29.13
2023-06-12T08:50:09.482Z,29.11
2023-06-12T08:51:06.381Z,29.10
2023-06-12T08:52:06.276Z,29.13
2023-06-12T08:53:06.286Z,29.10
2023-06-12T08:55:07.286Z,29.14
2023-06-12T08:56:06.366Z,29.14
2023-06-12T08:57:06.254Z,29.16
2023-06-12T08:58:06.306Z,29.14
2023-06-12T08:59:07.316Z,29.17
2023-06-12T09:00:06.285Z,29.18
2023-06-12T09:01:06.260Z,29.18
2023-06-12T09:02:14.484Z,29.21
2023-06-12T09:03:06.404Z,29.24
2023-06-12T09:04:06.370Z,29.25
2023-06-12T09:05:06.736Z,29.25
2023-06-12T09:06:06.282Z,29.24
2023-06-12T09:07:06.250Z,29.24
2023-06-12T09:08:06.343Z,29.28
2023-06-12T09:09:06.243Z,29.28
2023-06-12T09:10:14.368Z,29.31
2023-06-12T09:11:06.233Z,29.31
2023-06-12T09:12:06.206Z,29.31
2023-06-12T09:13:06.327Z,29.31
2023-06-12T09:14:06.195Z,29.31
2023-06-12T09:15:06.199Z,29.33
2023-06-12T09:16:06.346Z,29.33
2023-06-12T09:17:06.184Z,29.33
2023-06-12T09:18:06.239Z,29.37
2023-06-12T09:19:06.500Z,29.40
2023-06-12T09:20:06.154Z,29.37
2023-06-12T09:21:06.331Z,29.40
2023-06-12T09:22:06.153Z,29.43
2023-06-12T09:23:06.180Z,29.40
2023-06-12T09:24:06.381Z,29.43
2023-06-12T09:25:06.134Z,29.41
2023-06-12T09:27:06.103Z,29.44
2023-06-12T09:28:06.249Z,29.44
2023-06-12T09:29:06.342Z,29.47
2023-06-12T09:30:06.105Z,29.45
2023-06-12T09:31:37.982Z,29.48
2023-06-12T09:32:06.138Z,29.45
2023-06-12T09:33:06.390Z,29.44
2023-06-12T09:34:06.333Z,29.43
2023-06-12T09:35:06.161Z,29.44
2023-06-12T09:36:21.722Z,29.44
2023-06-12T09:37:06.337Z,29.45
2023-06-12T09:38:21.971Z,29.41
2023-06-12T09:39:21.608Z,29.44
2023-06-12T09:40:05.985Z,29.44
2023-06-12T09:42:06.005Z,29.44
2023-06-12T09:43:06.340Z,29.43
2023-06-12T09:44:05.946Z,29.45
2023-06-12T09:45:05.931Z,29.44
2023-06-12T09:46:13.342Z,29.44
2023-06-12T09:47:06.952Z,29.45
2023-06-12T09:48:05.969Z,29.45
2023-06-12T09:49:05.890Z,29.48
2023-06-12T09:50:05.894Z,29.45
2023-06-12T09:51:05.974Z,29.44
2023-06-12T09:52:05.868Z,29.44
2023-06-12T09:53:06.341Z,29.47
2023-06-12T09:54:05.842Z,29.47
2023-06-12T09:55:05.848Z,29.48
2023-06-12T09:56:05.829Z,29.45
2023-06-12T09:57:05.820Z,29.47
2023-06-12T09:58:05.878Z,29.44
2023-06-12T09:59:05.829Z,29.47
2023-06-12T10:00:05.843Z,29.48
2023-06-12T10:01:05.803Z,29.48
2023-06-12T10:02:05.830Z,29.51
2023-06-12T10:03:05.798Z,29.50
2023-06-12T10:04:05.780Z,29.48
2023-06-12T10:05:05.732Z,29.47
2023-06-12T10:06:05.753Z,29.47
2023-06-12T10:07:05.733Z,29.47
2023-06-12T10:08:05.850Z,29.44
2023-06-12T10:09:05.687Z,29.44
2023-06-12T10:10:05.676Z,29.40
2023-06-12T10:11:05.659Z,29.41
2023-06-12T10:12:05.645Z,29.41
2023-06-12T10:13:05.634Z,29.41
2023-06-12T10:14:05.852Z,29.35
2023-06-12T10:15:05.664Z,29.41
2023-06-12T10:16:08.987Z,29.38
2023-06-12T10:17:05.594Z,29.38
2023-06-12T10:18:06.698Z,29.40
2023-06-12T10:19:05.896Z,29.35
2023-06-12T10:20:05.565Z,29.40
2023-06-12T10:21:12.996Z,29.41
2023-06-12T10:22:08.841Z,29.41
2023-06-12T10:23:05.535Z,29.38
2023-06-12T10:24:13.317Z,29.40
2023-06-12T10:25:13.344Z,29.41
2023-06-12T10:26:05.861Z,29.37
2023-06-12T10:27:05.476Z,29.40
2023-06-12T10:28:05.484Z,29.41
2023-06-12T10:29:05.857Z,29.43
2023-06-12T10:30:08.712Z,29.37
2023-06-12T10:31:05.892Z,29.33
2023-06-12T10:32:06.031Z,29.31
2023-06-12T10:33:05.491Z,29.37
2023-06-12T10:34:05.456Z,29.25
2023-06-12T10:35:05.428Z,29.30
2023-06-12T10:36:05.407Z,29.34
2023-06-12T10:37:05.406Z,29.35
2023-06-12T10:38:12.864Z,29.37
2023-06-12T10:39:05.788Z,29.35
2023-06-12T10:40:05.917Z,29.37
2023-06-12T10:41:05.362Z,29.40
2023-06-12T10:42:05.347Z,29.43
2023-06-12T10:43:05.336Z,29.44
2023-06-12T10:44:05.314Z,29.48
2023-06-12T10:45:05.292Z,29.48
2023-06-12T10:46:05.349Z,29.48
2023-06-12T10:47:05.281Z,29.50
2023-06-12T10:48:05.568Z,29.52
2023-06-12T10:49:05.243Z,29.55
2023-06-12T10:50:05.255Z,29.54
2023-06-12T10:51:05.208Z,29.54
2023-06-12T10:52:05.188Z,29.54
2023-06-12T10:53:05.422Z,29.54
2023-06-12T10:54:05.404Z,29.55
2023-06-12T10:55:05.126Z,29.55
2023-06-12T10:56:05.137Z,29.57
2023-06-12T10:57:05.419Z,29.58
2023-06-12T10:58:05.073Z,29.60
2023-06-12T10:59:05.385Z,29.60
2023-06-12T11:00:05.045Z,29.61
2023-06-12T11:01:05.093Z,29.61
2023-06-12T11:02:05.247Z,29.64
2023-06-12T11:03:05.544Z,29.64
2023-06-12T11:04:05.131Z,29.65
2023-06-12T11:05:05.045Z,29.67
2023-06-12T11:06:05.051Z,29.64
2023-06-12T11:07:05.002Z,29.67
2023-06-12T11:08:05.405Z,29.68
2023-06-12T11:09:04.914Z,29.68
2023-06-12T11:10:04.885Z,29.69
2023-06-12T11:11:04.825Z,29.72
2023-06-12T11:12:04.834Z,29.72
2023-06-12T11:13:04.902Z,29.71
2023-06-12T11:14:04.881Z,29.69
2023-06-12T11:15:04.908Z,29.71
2023-06-12T11:16:04.939Z,29.71
2023-06-12T11:17:05.080Z,29.72
2023-06-12T11:18:05.065Z,29.72
2023-06-12T11:19:05.025Z,29.72
2023-06-12T11:20:05.423Z,29.72
2023-06-12T11:21:04.979Z,29.72
2023-06-12T11:22:05.420Z,29.76
2023-06-12T11:23:04.996Z,29.75
2023-06-12T11:24:05.038Z,29.76
2023-06-12T11:25:05.437Z,29.72
2023-06-12T11:26:05.045Z,29.72
2023-06-12T11:27:05.055Z,29.72
2023-06-12T11:28:05.441Z,29.71
2023-06-12T11:29:05.045Z,29.69
2023-06-12T11:30:23.128Z,29.67
2023-06-12T11:31:10.163Z,29.67
2023-06-12T11:32:05.051Z,29.67
2023-06-12T11:33:08.681Z,29.69
2023-06-12T11:34:08.233Z,29.65
2023-06-12T11:35:04.978Z,29.68
2023-06-12T11:36:04.996Z,29.68
2023-06-12T11:37:04.945Z,29.68
2023-06-12T11:40:03.907Z,29.64
2023-06-12T11:41:04.890Z,29.64
2023-06-12T11:42:04.887Z,29.60
2023-06-12T11:43:04.923Z,29.65
2023-06-12T11:44:04.843Z,29.64
2023-06-12T11:45:04.822Z,29.68
2023-06-12T11:46:05.079Z,29.65
2023-06-12T11:50:03.774Z,29.67
2023-06-12T11:51:04.891Z,29.67
2023-06-12T11:52:04.727Z,29.65
2023-06-12T11:53:04.704Z,29.65
2023-06-12T11:54:04.707Z,29.64
2023-06-12T11:57:04.580Z,29.60
2023-06-12T11:58:04.761Z,29.61
2023-06-12T11:59:04.638Z,29.60
2023-06-12T12:00:04.607Z,29.60
2023-06-12T12:01:04.902Z,29.60
2023-06-12T12:02:04.673Z,29.62
2023-06-12T12:03:04.949Z,29.61
2023-06-12T12:04:04.638Z,29.61
2023-06-12T12:05:04.589Z,29.61
2023-06-12T12:06:04.516Z,29.57
2023-06-12T12:07:04.506Z,29.57
2023-06-12T12:08:04.489Z,29.55
2023-06-12T12:09:04.473Z,29.55
2023-06-12T12:10:04.455Z,29.57
2023-06-12T12:11:04.953Z,29.55
2023-06-12T12:12:04.412Z,29.54
2023-06-12T12:13:04.408Z,29.55
2023-06-12T12:14:04.402Z,29.58
2023-06-12T12:15:04.385Z,29.55
2023-06-12T12:16:04.391Z,29.60
2023-06-12T12:17:04.339Z,29.60
2023-06-12T12:18:04.451Z,29.64
2023-06-12T12:19:04.333Z,29.62
2023-06-12T12:20:05.266Z,29.64
2023-06-12T12:21:04.259Z,29.68
2023-06-12T12:22:04.237Z,29.71
2023-06-12T12:23:04.218Z,29.67
2023-06-12T12:24:04.262Z,29.67
2023-06-12T12:25:04.177Z,29.67
2023-06-12T12:26:04.174Z,29.65
2023-06-12T12:27:04.143Z,29.64
2023-06-12T12:28:04.180Z,29.65
2023-06-12T12:29:04.126Z,29.62
2023-06-12T12:30:04.114Z,29.64
2023-06-12T12:31:04.075Z,29.62
2023-06-12T12:32:04.074Z,29.64
2023-06-12T12:33:04.063Z,29.65
2023-06-12T12:34:04.021Z,29.62
2023-06-12T12:35:04.025Z,29.62
2023-06-12T12:36:04.004Z,29.64
2023-06-12T12:37:03.928Z,29.62
2023-06-12T12:38:03.907Z,29.61
2023-06-12T12:39:03.889Z,29.61
2023-06-12T12:40:03.871Z,29.64
2023-06-12T12:41:03.900Z,29.65
2023-06-12T12:42:11.232Z,29.64
2023-06-12T12:43:03.849Z,29.67
2023-06-12T12:44:03.953Z,29.64
2023-06-12T12:45:03.815Z,29.65
2023-06-12T12:46:03.790Z,29.64
2023-06-12T12:47:03.753Z,29.65
2023-06-12T12:48:03.901Z,29.64
2023-06-12T12:49:03.714Z,29.64
2023-06-12T12:50:06.767Z,29.60
2023-06-12T12:52:02.667Z,29.64
2023-06-12T12:53:03.934Z,29.61
2023-06-12T12:54:03.621Z,29.61
2023-06-12T12:55:03.603Z,29.64
2023-06-12T12:56:03.572Z,29.62
2023-06-12T12:57:03.569Z,29.64
2023-06-12T12:58:17.567Z,29.64
2023-06-12T12:59:03.523Z,29.61
2023-06-12T13:00:03.499Z,29.65
2023-06-12T13:01:03.487Z,29.62
2023-06-12T13:02:03.492Z,29.64
2023-06-12T13:03:03.508Z,29.64
2023-06-12T13:04:04.130Z,29.64
2023-06-12T13:05:03.449Z,29.64
2023-06-12T13:06:03.395Z,29.62
2023-06-12T13:07:03.404Z,29.64
2023-06-12T13:08:03.379Z,29.61
2023-06-12T13:09:03.341Z,29.62
2023-06-12T13:10:03.348Z,29.62
2023-06-12T13:11:03.300Z,29.62
2023-06-12T13:12:03.277Z,29.62
2023-06-12T13:13:03.260Z,29.64